Terminal Aerodrome Forecast
Issued by NWS Twin Cities, MN

Home | Current Version | Previous Version | Graphics & Text | Print | Product List | Glossary On
Versions: 1 2 3 4 5 6 7 8 9 10 11 12 13 14 15 16 17 18 19 20 21 22
000
FTUS43 KMPX 291120
TAFEAU
TAF
KEAU 291120Z 2912/3012 05004KT P6SM OVC007
      TEMPO 2912/2914 6SM BR OVC004
     FM291700 08004KT P6SM BKN010
     FM291900 09003KT P6SM OVC020
     FM292100 12002KT P6SM SKC
     FM300700 18003KT 6SM BR SKC
      TEMPO 3008/3012 3SM BR=

USA.gov is the U.S. government's official web portal to all federal, state and local government web resources and services.